Time;durP1;ratioP1;P1;durP2;ratioP2;P2;SDS_P1;SDS_P2;PMS_P1;PMS_P2;Temp;Humidity;BMP_temperature;BMP_pressure;BME280_temperature;BME280_humidity;BME280_pressure;Samples;Min_cycle;Max_cycle;Signal;HPM_P1;HPM_P2
2021/07/03 00:02:19;;;;;;;;;;;;;;;18.70;76.46;99737.52;126364;1099;104166;-77
2021/07/03 00:04:48;;;;;;;;;;;;;;;18.72;77.03;99734.84;126339;1099;104501;-77
2021/07/03 00:07:17;;;;;;;;;;;;;;;18.69;76.63;99730.44;126364;1099;104149;-76
2021/07/03 00:09:46;;;;;;;;;;;;;;;18.63;76.25;99738.46;126398;1099;104195;-76
2021/07/03 00:12:15;;;;;;;;;;;;;;;18.57;76.41;99735.86;126339;1099;104303;-75
2021/07/03 00:14:44;;;;;;;;;;;;;;;18.50;76.27;99727.08;126311;1099;104146;-76
2021/07/03 00:17:14;;;;;;;;;;;;;;;18.47;76.57;99735.94;126355;1099;104286;-76
2021/07/03 00:19:43;;;;;;;;;;;;;;;18.45;76.89;99731.53;126379;1099;104133;-76
2021/07/03 00:22:12;;;;;;;;;;;;;;;18.44;76.64;99740.41;126323;1099;104278;-76
2021/07/03 00:24:41;;;;;;;;;;;;;;;18.41;76.86;99741.30;126400;1098;104251;-76
2021/07/03 00:27:10;;;;;;;;;;;;;;;18.35;76.82;99735.17;126267;1099;104141;-76
2021/07/03 00:29:39;;;;;;;;;;;;;;;18.25;76.61;99743.22;126365;1099;104168;-76
2021/07/03 00:32:08;;;;;;;;;;;;;;;18.17;77.06;99739.75;126269;1099;104200;-77
2021/07/03 00:34:38;;;;;;;;;;;;;;;18.11;77.12;99740.66;126395;1099;104198;-77
2021/07/03 00:37:07;;;;;;;;;;;;;;;18.10;77.03;99743.33;126327;1099;104312;-76
2021/07/03 00:39:36;;;;;;;;;;;;;;;18.05;77.46;99745.14;126357;1099;104271;-77
2021/07/03 00:42:06;;;;;;;;;;;;;;;18.02;77.27;99746.03;126342;1099;104262;-76
2021/07/03 00:44:36;;;;;;;;;;;;;;;17.98;77.17;99741.63;126363;1099;104192;-76
2021/07/03 00:47:08;;;;;;;;;;;;;;;17.98;77.27;99738.09;126342;1099;104140;-77
2021/07/03 00:49:38;;;;;;;;;;;;;;;17.95;77.54;99733.68;126382;1099;104268;-78
2021/07/03 00:52:09;;;;;;;;;;;;;;;17.94;77.29;99732.81;126374;1099;104236;-76
2021/07/03 00:54:39;;;;;;;;;;;;;;;17.94;77.58;99721.32;126313;1099;104171;-76
2021/07/03 00:57:09;;;;;;;;;;;;;;;17.98;77.35;99727.48;126315;1099;104194;-76
2021/07/03 00:59:43;;;;;;;;;;;;;;;18.00;77.62;99731.00;126365;1099;104586;-76
2021/07/03 01:02:15;;;;;;;;;;;;;;;17.96;77.44;99720.40;126354;1099;104284;-77
2021/07/03 01:04:45;;;;;;;;;;;;;;;17.89;77.45;99713.39;126331;1099;104188;-77
2021/07/03 01:07:16;;;;;;;;;;;;;;;17.84;77.83;99719.58;126356;1098;104168;-77
2021/07/03 01:09:46;;;;;;;;;;;;;;;17.78;77.50;99723.17;126378;1098;104278;-78
2021/07/03 01:12:17;;;;;;;;;;;;;;;17.72;77.58;99723.20;126394;1099;104188;-78
2021/07/03 01:14:47;;;;;;;;;;;;;;;17.67;77.75;99712.62;126378;1099;104163;-76
2021/07/03 01:17:17;;;;;;;;;;;;;;;17.65;77.59;99718.81;126326;1099;104137;-77
2021/07/03 01:19:48;;;;;;;;;;;;;;;17.66;77.79;99718.80;126378;1099;104210;-78
2021/07/03 01:22:18;;;;;;;;;;;;;;;17.64;77.88;99720.59;126385;1099;104188;-77
2021/07/03 01:24:48;;;;;;;;;;;;;;;17.65;77.98;99721.47;126386;1099;104134;-76
2021/07/03 01:27:17;;;;;;;;;;;;;;;17.68;78.12;99718.80;126290;1099;105634;-76
2021/07/03 01:29:47;;;;;;;;;;;;;;;17.75;78.56;99724.06;126354;1099;104227;-76
2021/07/03 01:32:17;;;;;;;;;;;;;;;17.83;78.29;99721.36;126395;1098;104185;-76
2021/07/03 01:34:49;;;;;;;;;;;;;;;17.88;77.99;99711.62;126346;1099;104188;-77
2021/07/03 01:37:27;;;;;;;;;;;;;;;17.91;78.17;99711.59;126333;1097;104162;-77
2021/07/03 01:39:59;;;;;;;;;;;;;;;17.93;78.19;99709.80;126379;1099;104166;-77
2021/07/03 01:42:29;;;;;;;;;;;;;;;17.92;77.50;99713.38;126356;1099;104182;-77
2021/07/03 01:45:00;;;;;;;;;;;;;;;17.92;78.20;99720.43;126382;1099;104252;-76
2021/07/03 01:47:29;;;;;;;;;;;;;;;17.93;78.04;99719.55;126300;1099;104463;-77
2021/07/03 01:49:59;;;;;;;;;;;;;;;17.98;78.12;99722.17;126383;1098;104169;-77
2021/07/03 01:52:28;;;;;;;;;;;;;;;18.00;77.94;99721.28;126369;1099;102389;-77
2021/07/03 01:55:00;;;;;;;;;;;;;;;17.99;77.90;99718.64;126346;1099;104130;-77
2021/07/03 01:57:31;;;;;;;;;;;;;;;18.02;78.18;99721.27;126336;1099;104136;-77
2021/07/03 02:00:21;;;;;;;;;;;;;;;18.05;77.87;99719.47;126361;1099;104140;-76
2021/07/03 02:02:50;;;;;;;;;;;;;;;18.07;78.19;99722.11;126414;1099;104130;-76
2021/07/03 02:05:31;;;;;;;;;;;;;;;18.08;78.16;99723.88;126360;1099;104153;-77
2021/07/03 02:08:00;;;;;;;;;;;;;;;18.10;78.12;99730.05;126304;1099;105109;-77
2021/07/03 02:10:30;;;;;;;;;;;;;;;18.08;77.83;99729.19;126368;1099;104214;-77
2021/07/03 02:13:00;;;;;;;;;;;;;;;18.10;78.14;99733.58;126347;1099;104140;-77
2021/07/03 02:15:36;;;;;;;;;;;;;;;18.07;77.79;99738.91;126380;1099;104184;-76
2021/07/03 02:18:11;;;;;;;;;;;;;;;18.05;77.78;99739.83;126305;1099;105466;-76
2021/07/03 02:20:41;;;;;;;;;;;;;;;18.01;78.03;99740.73;126372;1099;104136;-76
2021/07/03 02:23:15;;;;;;;;;;;;;;;18.00;78.10;99731.91;126372;1099;104159;-77
2021/07/03 02:25:47;;;;;;;;;;;;;;;18.00;78.16;99744.27;126339;1099;104171;-76
2021/07/03 02:28:21;;;;;;;;;;;;;;;18.00;77.97;99741.61;126350;1099;104143;-77
2021/07/03 02:30:55;;;;;;;;;;;;;;;17.93;77.67;99739.00;126370;1099;104150;-76
2021/07/03 02:33:24;;;;;;;;;;;;;;;17.86;77.74;99741.70;126396;1099;104589;-77
2021/07/03 02:35:56;;;;;;;;;;;;;;;17.75;77.63;99742.63;126359;1099;104140;-76
2021/07/03 02:38:25;;;;;;;;;;;;;;;17.65;78.02;99735.60;126288;1097;104149;-76
2021/07/03 02:40:55;;;;;;;;;;;;;;;17.57;78.37;99745.38;126395;1099;104134;-76
2021/07/03 02:43:25;;;;;;;;;;;;;;;17.49;78.07;99742.77;126384;1099;104154;-75
2021/07/03 02:45:57;;;;;;;;;;;;;;;17.43;78.32;99750.74;126350;1099;104139;-76
2021/07/03 02:48:29;;;;;;;;;;;;;;;17.39;78.12;99746.33;126315;1099;104211;-76
2021/07/03 02:50:59;;;;;;;;;;;;;;;17.37;78.16;99756.08;126339;1099;104213;-76
2021/07/03 02:53:28;;;;;;;;;;;;;;;17.34;78.28;99759.64;126398;1099;104172;-76
2021/07/03 02:55:59;;;;;;;;;;;;;;;17.32;78.33;99758.74;126391;1099;104172;-76
2021/07/03 02:58:29;;;;;;;;;;;;;;;17.31;78.45;99759.65;126269;1099;104242;-77
2021/07/03 03:00:59;;;;;;;;;;;;;;;17.31;78.54;99759.65;126352;1099;104762;-77
2021/07/03 03:03:30;;;;;;;;;;;;;;;17.32;78.79;99768.48;126396;1099;104239;-78
2021/07/03 03:06:00;;;;;;;;;;;;;;;17.32;78.35;99768.48;126408;1099;104166;-77
2021/07/03 03:08:29;;;;;;;;;;;;;;;17.34;78.74;99762.29;126306;1099;104140;-76
2021/07/03 03:10:59;;;;;;;;;;;;;;;17.39;78.60;99781.70;126315;1099;104163;-77
2021/07/03 03:13:29;;;;;;;;;;;;;;;17.42;78.50;99784.35;126337;1099;104217;-76
2021/07/03 03:15:58;;;;;;;;;;;;;;;17.43;78.83;99786.09;126360;1099;104175;-76
2021/07/03 03:18:27;;;;;;;;;;;;;;;17.45;78.92;99790.52;126363;1099;104175;-77
2021/07/03 03:20:57;;;;;;;;;;;;;;;17.46;78.85;99789.64;126391;1099;104291;-76
2021/07/03 03:23:26;;;;;;;;;;;;;;;17.48;78.71;99785.20;126335;1098;104162;-76
2021/07/03 03:25:56;;;;;;;;;;;;;;;17.51;78.77;99791.37;126340;1099;104281;-77
2021/07/03 03:28:26;;;;;;;;;;;;;;;17.55;78.27;99786.95;126332;1099;104162;-76
2021/07/03 03:30:55;;;;;;;;;;;;;;;17.57;78.65;99786.04;126336;1099;104168;-76
2021/07/03 03:33:28;;;;;;;;;;;;;;;17.59;78.80;99791.34;126355;1099;104203;-76
2021/07/03 03:35:58;;;;;;;;;;;;;;;17.63;79.06;99790.45;126348;1099;105283;-76
2021/07/03 03:38:27;;;;;;;;;;;;;;;17.67;79.01;99783.34;126388;1099;104162;-77
2021/07/03 03:40:57;;;;;;;;;;;;;;;17.71;78.93;99783.33;126348;1099;104146;-77
2021/07/03 03:43:26;;;;;;;;;;;;;;;17.78;78.94;99778.89;126401;1097;104194;-78
2021/07/03 03:45:55;;;;;;;;;;;;;;;17.86;79.10;99776.20;126347;1098;104146;-78
2021/07/03 03:48:25;;;;;;;;;;;;;;;17.93;78.89;99778.81;126324;1099;104232;-77
2021/07/03 03:50:58;;;;;;;;;;;;;;;17.99;79.06;99783.21;126349;1099;104141;-76
2021/07/03 03:53:28;;;;;;;;;;;;;;;18.02;78.78;99771.70;126359;1099;104166;-77
2021/07/03 03:55:57;;;;;;;;;;;;;;;18.06;79.01;99770.77;126398;1099;104594;-78
2021/07/03 03:58:29;;;;;;;;;;;;;;;18.09;79.02;99774.31;126370;1098;104252;-76
2021/07/03 04:00:59;;;;;;;;;;;;;;;18.16;78.91;99771.62;126300;1099;105565;-77
2021/07/03 04:03:31;;;;;;;;;;;;;;;18.23;79.14;99775.97;126375;1099;104616;-76
2021/07/03 04:06:02;;;;;;;;;;;;;;;18.26;78.72;99781.26;126354;1099;103035;-76
2021/07/03 04:08:31;;;;;;;;;;;;;;;18.29;78.98;99774.17;126389;1099;104184;-77
2021/07/03 04:11:00;;;;;;;;;;;;;;;18.36;79.11;99766.16;126342;1099;104146;-77
2021/07/03 04:13:30;;;;;;;;;;;;;;;18.43;78.93;99765.20;126359;1099;104134;-76
2021/07/03 04:15:59;;;;;;;;;;;;;;;18.47;78.69;99765.16;126351;1098;104153;-76
2021/07/03 04:18:28;;;;;;;;;;;;;;;18.55;79.26;99769.55;126314;1099;104149;-76
2021/07/03 04:20:57;;;;;;;;;;;;;;;18.62;78.61;99764.16;126354;1099;104131;-77
2021/07/03 04:23:27;;;;;;;;;;;;;;;18.73;78.75;99766.72;126406;1099;104175;-76
2021/07/03 04:25:56;;;;;;;;;;;;;;;18.80;79.02;99767.53;126317;1099;104219;-77
2021/07/03 04:28:27;;;;;;;;;;;;;;;18.88;78.49;99771.02;126387;1099;104662;-78
2021/07/03 04:30:56;;;;;;;;;;;;;;;18.94;78.68;99759.46;126312;1099;104133;-77
2021/07/03 04:33:25;;;;;;;;;;;;;;;19.02;79.22;99769.09;126431;1099;104162;-77
2021/07/03 04:35:55;;;;;;;;;;;;;;;19.08;79.07;99761.97;126357;1099;104251;-75
2021/07/03 04:38:24;;;;;;;;;;;;;;;19.09;78.46;99763.72;126351;1099;104137;-77
2021/07/03 04:40:53;;;;;;;;;;;;;;;19.09;78.40;99759.30;126314;1099;104192;-77
2021/07/03 04:43:22;;;;;;;;;;;;;;;19.12;78.41;99769.00;126318;1099;104175;-77
2021/07/03 04:45:51;;;;;;;;;;;;;;;19.16;78.93;99766.29;126355;1099;104242;-77
2021/07/03 04:48:20;;;;;;;;;;;;;;;19.16;78.54;99771.61;126384;1099;104146;-77
2021/07/03 04:50:51;;;;;;;;;;;;;;;19.18;79.00;99760.95;126298;1099;104168;-76
2021/07/03 04:53:20;;;;;;;;;;;;;;;19.20;78.58;99764.50;126361;1099;104149;-77
2021/07/03 04:55:50;;;;;;;;;;;;;;;19.19;78.38;99762.73;126372;1099;104336;-77
2021/07/03 04:58:19;;;;;;;;;;;;;;;19.20;78.85;99757.39;126412;1099;104233;-76
2021/07/03 05:00:48;;;;;;;;;;;;;;;19.22;78.66;99757.37;126323;1099;104306;-77
2021/07/03 05:03:18;;;;;;;;;;;;;;;19.24;78.77;99755.56;126328;1098;104194;-76
2021/07/03 05:05:47;;;;;;;;;;;;;;;19.24;78.26;99755.56;126351;1099;104615;-78
2021/07/03 05:08:17;;;;;;;;;;;;;;;19.23;78.29;99756.48;126390;1099;104296;-76
2021/07/03 05:10:47;;;;;;;;;;;;;;;19.27;78.01;99757.32;126304;1099;104146;-76
2021/07/03 05:13:16;;;;;;;;;;;;;;;19.32;78.01;99768.78;126344;1098;104147;-77
2021/07/03 05:15:45;;;;;;;;;;;;;;;19.33;78.35;99768.76;126303;1099;104163;-77
2021/07/03 05:18:14;;;;;;;;;;;;;;;19.35;78.40;99771.41;125248;1099;104443;-78
2021/07/03 05:20:43;;;;;;;;;;;;;;;19.39;78.23;99771.34;125316;1099;104137;-77
2021/07/03 05:23:15;;;;;;;;;;;;;;;19.41;78.22;99781.97;125327;1099;104344;-77
2021/07/03 05:25:45;;;;;;;;;;;;;;;19.37;78.00;99778.48;125280;1099;104155;-76
2021/07/03 05:28:15;;;;;;;;;;;;;;;19.40;77.71;99785.55;125301;1099;104620;-76
2021/07/03 05:30:48;;;;;;;;;;;;;;;19.40;77.59;99791.74;125366;1099;104306;-76
2021/07/03 05:33:17;;;;;;;;;;;;;;;19.40;78.11;99790.88;125227;1099;111870;-77
2021/07/03 05:35:46;;;;;;;;;;;;;;;19.39;77.77;99797.95;125377;1099;104184;-76
2021/07/03 05:38:16;;;;;;;;;;;;;;;19.39;78.06;99799.73;126381;1099;104192;-76
2021/07/03 05:40:45;;;;;;;;;;;;;;;19.40;77.75;99805.05;126332;1099;104206;-77
2021/07/03 05:43:14;;;;;;;;;;;;;;;19.45;77.34;99807.65;126288;1099;104165;-77
2021/07/03 05:45:43;;;;;;;;;;;;;;;19.49;77.35;99805.83;126358;1098;104602;-76
2021/07/03 05:48:12;;;;;;;;;;;;;;;19.54;77.36;99815.52;126351;1099;104140;-77
2021/07/03 05:50:42;;;;;;;;;;;;;;;19.61;77.69;99811.00;126361;1099;104185;-76
2021/07/03 05:53:11;;;;;;;;;;;;;;;19.63;77.08;99811.85;126337;1099;104299;-76
2021/07/03 05:55:40;;;;;;;;;;;;;;;19.65;76.89;99810.08;126331;1099;104159;-77
2021/07/03 05:58:09;;;;;;;;;;;;;;;19.72;77.26;99811.73;126362;1099;104663;-77
2021/07/03 06:00:38;;;;;;;;;;;;;;;19.78;77.69;99818.81;126387;1099;104162;-77
2021/07/03 06:03:07;;;;;;;;;;;;;;;19.76;77.68;99812.60;126314;1099;105572;-77
2021/07/03 06:05:36;;;;;;;;;;;;;;;19.76;77.11;99820.59;126263;1099;104268;-77
2021/07/03 06:08:06;;;;;;;;;;;;;;;19.79;77.88;99819.67;126390;1099;104133;-77
2021/07/03 06:10:35;;;;;;;;;;;;;;;19.82;77.65;99820.55;126359;1099;104242;-77
2021/07/03 06:13:04;;;;;;;;;;;;;;;19.86;76.98;99814.25;126348;1099;104236;-77
2021/07/03 06:15:34;;;;;;;;;;;;;;;19.90;77.40;99817.78;126340;1099;104130;-76
2021/07/03 06:18:03;;;;;;;;;;;;;;;19.91;77.01;99815.09;126343;1099;104178;-77
2021/07/03 06:20:32;;;;;;;;;;;;;;;20.01;76.93;99817.64;126420;1096;104185;-77
2021/07/03 06:23:02;;;;;;;;;;;;;;;20.11;76.94;99821.91;125343;1099;104401;-78
2021/07/03 06:25:31;;;;;;;;;;;;;;;20.27;77.05;99819.89;125385;1099;104143;-77
2021/07/03 06:28:00;;;;;;;;;;;;;;;20.43;76.50;99813.44;126403;1099;104692;-76
2021/07/03 06:30:29;;;;;;;;;;;;;;;20.60;76.70;99805.18;126336;1099;104224;-76
2021/07/03 06:32:58;;;;;;;;;;;;;;;20.85;76.23;99804.80;126308;1099;104160;-76
2021/07/03 06:35:27;;;;;;;;;;;;;;;21.06;76.69;99800.84;126370;1099;104146;-76
2021/07/03 06:37:56;;;;;;;;;;;;;;;21.23;76.74;99805.87;126368;1099;104149;-76
2021/07/03 06:40:26;;;;;;;;;;;;;;;21.36;76.09;99795.83;125296;1099;104274;-77
2021/07/03 06:42:55;;;;;;;;;;;;;;;21.47;76.07;99804.52;125258;1099;105467;-77
2021/07/03 06:45:25;;;;;;;;;;;;;;;21.58;75.50;99792.77;125266;1099;104265;-77
2021/07/03 06:47:54;;;;;;;;;;;;;;;21.63;75.23;99797.10;125293;1099;104185;-76
2021/07/03 06:50:23;;;;;;;;;;;;;;;21.65;75.32;99797.07;125272;1099;104239;-77
2021/07/03 06:52:52;;;;;;;;;;;;;;;21.63;75.46;99794.44;125261;1099;104168;-77
2021/07/03 06:55:22;;;;;;;;;;;;;;;21.72;75.40;99788.90;125259;1099;104248;-77
2021/07/03 06:57:52;;;;;;;;;;;;;;;21.81;75.61;99789.61;125268;1099;104312;-75
2021/07/03 07:00:21;;;;;;;;;;;;;;;21.94;74.64;99796.45;125333;1099;104241;-75
2021/07/03 07:02:50;;;;;;;;;;;;;;;22.02;74.58;99799.81;125246;1099;104463;-76
2021/07/03 07:05:19;;;;;;;;;;;;;;;22.06;74.58;99798.84;125355;1099;117755;-76
2021/07/03 07:07:49;;;;;;;;;;;;;;;22.14;74.07;99800.44;125259;1099;105683;-76
2021/07/03 07:10:18;;;;;;;;;;;;;;;22.29;74.64;99796.55;125266;1099;104286;-78
2021/07/03 07:12:47;;;;;;;;;;;;;;;22.37;73.74;99795.46;126103;1099;104634;-78
2021/07/03 07:15:17;;;;;;;;;;;;;;;22.49;74.14;99802.31;126327;1099;104150;-76
2021/07/03 07:17:46;;;;;;;;;;;;;;;22.65;73.73;99802.81;126319;1099;104229;-77
2021/07/03 07:20:15;;;;;;;;;;;;;;;22.84;73.55;99803.21;126341;1099;104146;-77
2021/07/03 07:22:44;;;;;;;;;;;;;;;22.98;73.59;99806.43;126393;1099;104223;-76
2021/07/03 07:25:14;;;;;;;;;;;;;;;23.19;73.03;99806.80;126318;1099;104162;-77
2021/07/03 07:27:43;;;;;;;;;;;;;;;23.42;72.68;99805.26;126373;1099;104195;-77
2021/07/03 07:30:14;;;;;;;;;;;;;;;23.50;72.13;99797.91;126330;1099;104168;-77
2021/07/03 07:32:45;;;;;;;;;;;;;;;23.52;72.05;99790.70;126274;1098;104127;-77
2021/07/03 07:35:15;;;;;;;;;;;;;;;23.67;71.96;99795.61;126335;1099;104143;-77
2021/07/03 07:37:44;;;;;;;;;;;;;;;23.74;71.63;99790.08;126390;1099;104165;-77
2021/07/03 07:40:14;;;;;;;;;;;;;;;23.84;70.91;99791.56;126376;1098;104227;-77
2021/07/03 07:42:43;;;;;;;;;;;;;;;24.03;71.55;99783.87;126388;1099;104627;-77
2021/07/03 07:45:14;;;;;;;;;;;;;;;24.24;70.87;99784.97;126400;1099;104146;-77
2021/07/03 07:47:43;;;;;;;;;;;;;;;24.34;70.78;99781.08;126378;1099;104617;-77
2021/07/03 07:50:12;;;;;;;;;;;;;;;24.22;69.96;99785.02;126356;1099;104155;-77
2021/07/03 07:52:41;;;;;;;;;;;;;;;24.09;69.35;99786.36;126382;1099;104140;-77
2021/07/03 07:55:10;;;;;;;;;;;;;;;24.06;68.81;99781.09;126296;1099;104194;-77
2021/07/03 07:57:40;;;;;;;;;;;;;;;24.12;69.19;99769.28;126360;1099;104165;-76
2021/07/03 08:00:09;;;;;;;;;;;;;;;24.35;69.50;99771.22;126369;1099;104143;-76
2021/07/03 08:02:44;;;;;;;;;;;;;;;24.49;68.65;99779.69;126310;1099;105161;-76
2021/07/03 08:05:17;;;;;;;;;;;;;;;24.46;68.08;99763.70;126428;1099;104153;-77
2021/07/03 08:07:46;;;;;;;;;;;;;;;24.50;68.01;99769.86;126366;1099;104174;-77
2021/07/03 08:10:15;;;;;;;;;;;;;;;24.57;67.56;99772.31;125291;1099;104140;-76
2021/07/03 08:12:45;;;;;;;;;;;;;;;24.60;67.07;99771.31;125337;1099;104323;-77
2021/07/03 08:15:18;;;;;;;;;;;;;;;24.73;67.41;99767.30;125294;1099;104320;-77
2021/07/03 08:17:58;;;;;;;;;;;;;;;24.91;66.76;99770.27;125340;1102;104185;-75
2021/07/03 08:20:29;;;;;;;;;;;;;;;24.83;65.88;99777.71;125353;1102;104297;-76
2021/07/03 08:23:01;;;;;;;;;;;;;;;24.75;65.94;99781.52;125291;1101;104669;-77
2021/07/03 08:25:34;;;;;;;;;;;;;;;24.82;65.47;99784.00;125333;1102;104233;-77
2021/07/03 08:28:04;;;;;;;;;;;;;;;24.90;65.00;99780.13;125320;1102;104396;-77
2021/07/03 08:30:34;;;;;;;;;;;;;;;24.99;63.86;99776.23;125271;1102;104265;-77
2021/07/03 08:33:06;;;;;;;;;;;;;;;25.14;64.71;99773.95;125279;1102;104319;-77
2021/07/03 08:35:35;;;;;;;;;;;;;;;25.39;64.95;99769.45;125252;1102;104246;-77
2021/07/03 08:38:04;;;;;;;;;;;;;;;25.57;63.93;99770.59;125246;1102;105671;-77
2021/07/03 08:40:34;;;;;;;;;;;;;;;25.82;63.90;99772.30;125243;1100;104290;-76
2021/07/03 08:43:03;;;;;;;;;;;;;;;25.91;64.15;99768.39;125355;1099;104152;-76
2021/07/03 08:45:32;;;;;;;;;;;;;;;25.81;63.39;99771.44;125279;1099;104398;-76
2021/07/03 08:48:01;;;;;;;;;;;;;;;25.64;63.09;99777.45;125228;1099;104195;-76
2021/07/03 08:50:32;;;;;;;;;;;;;;;25.70;62.85;99770.98;125300;1099;104366;-76
2021/07/03 08:53:02;;;;;;;;;;;;;;;25.67;63.12;99771.10;125270;1099;104140;-76
2021/07/03 08:55:32;;;;;;;;;;;;;;;25.65;62.87;99767.61;125307;1099;104185;-77
2021/07/03 08:58:04;;;;;;;;;;;;;;;25.58;63.06;99766.08;125326;1099;104299;-76
2021/07/03 09:00:34;;;;;;;;;;;;;;;25.60;62.48;99777.63;125248;1099;104168;-76
2021/07/03 09:03:13;;;;;;;;;;;;;;;25.68;62.96;99780.03;125311;1100;104303;-77
2021/07/03 09:05:43;;;;;;;;;;;;;;;25.70;62.07;99776.36;125313;1099;104159;-76
2021/07/03 09:08:12;;;;;;;;;;;;;;;25.73;62.45;99778.06;125294;1099;104316;-77
2021/07/03 09:10:43;;;;;;;;;;;;;;;25.88;62.16;99781.95;125333;1099;104265;-77
2021/07/03 09:13:14;;;;;;;;;;;;;;;25.97;61.95;99789.66;125322;1099;104287;-77
2021/07/03 09:15:44;;;;;;;;;;;;;;;26.16;62.01;99796.09;125315;1099;104146;-77
2021/07/03 09:18:14;;;;;;;;;;;;;;;26.27;62.15;99787.61;125213;1099;104232;-77
2021/07/03 09:20:44;;;;;;;;;;;;;;;26.53;61.84;99793.70;125365;1099;104232;-76
2021/07/03 09:23:14;;;;;;;;;;;;;;;26.56;61.03;99793.58;125326;1099;104143;-76
2021/07/03 09:25:45;;;;;;;;;;;;;;;26.43;60.67;99786.95;125259;1099;104695;-76
2021/07/03 09:28:15;;;;;;;;;;;;;;;26.23;59.59;99796.72;125292;1099;104693;-77
2021/07/03 09:30:45;;;;;;;;;;;;;;;26.24;60.43;99797.59;125268;1099;104140;-76
2021/07/03 09:33:19;;;;;;;;;;;;;;;26.33;60.77;99791.84;125356;1099;104258;-76
2021/07/03 09:35:59;;;;;;;;;;;;;;;26.37;60.20;99782.72;125775;1098;104258;-77
2021/07/03 09:38:30;;;;;;;;;;;;;;;26.29;59.51;99790.23;126323;1098;101812;-76
2021/07/03 09:41:14;;;;;;;;;;;;;;;26.19;59.59;99784.33;126403;1099;104133;-76
2021/07/03 09:43:58;;;;;;;;;;;;;;;26.16;58.83;99789.83;126343;1098;104172;-75
2021/07/03 09:46:28;;;;;;;;;;;;;;;26.04;59.43;99780.45;126350;1099;104143;-76
2021/07/03 09:48:59;;;;;;;;;;;;;;;26.05;59.43;99775.95;126309;1099;104243;-76
2021/07/03 09:51:30;;;;;;;;;;;;;;;26.09;58.59;99780.27;126381;1099;104181;-77
2021/07/03 09:54:00;;;;;;;;;;;;;;;26.00;59.07;99778.81;126390;1099;104147;-77
2021/07/03 09:56:30;;;;;;;;;;;;;;;25.92;59.51;99786.28;126375;1098;104239;-76
2021/07/03 09:59:00;;;;;;;;;;;;;;;25.95;58.76;99772.72;126307;1099;104130;-77
2021/07/03 10:01:29;;;;;;;;;;;;;;;26.06;58.88;99773.20;125315;1099;104181;-77
2021/07/03 10:04:04;;;;;;;;;;;;;;;26.17;58.67;99772.77;125243;1099;104133;-77
2021/07/03 10:06:34;;;;;;;;;;;;;;;26.36;58.60;99772.89;125285;1099;104143;-75
2021/07/03 10:09:06;;;;;;;;;;;;;;;26.46;58.00;99774.27;125271;1099;104249;-76
2021/07/03 10:11:41;;;;;;;;;;;;;;;26.58;58.31;99777.38;125304;1099;104220;-76
2021/07/03 10:14:10;;;;;;;;;;;;;;;26.62;57.41;99770.94;125291;1099;104162;-78
2021/07/03 10:16:40;;;;;;;;;;;;;;;26.61;56.99;99769.17;125286;1099;104303;-76
2021/07/03 10:19:14;;;;;;;;;;;;;;;26.65;57.62;99765.42;125286;1099;104143;-76
2021/07/03 10:21:44;;;;;;;;;;;;;;;26.64;57.20;99766.36;125312;1099;104592;-76
2021/07/03 10:24:18;;;;;;;;;;;;;;;26.61;57.39;99758.42;125289;1099;104159;-76
2021/07/03 10:26:47;;;;;;;;;;;;;;;26.66;57.41;99765.39;125347;1099;104146;-77
2021/07/03 10:29:21;;;;;;;;;;;;;;;26.67;56.84;99763.57;125257;1099;104240;-76
2021/07/03 10:31:51;;;;;;;;;;;;;;;26.61;56.88;99759.28;125316;1099;104286;-77
2021/07/03 10:34:29;;;;;;;;;;;;;;;26.57;56.62;99756.78;125308;1099;104700;-77
2021/07/03 10:37:02;;;;;;;;;;;;;;;26.60;56.72;99753.96;125371;1099;104328;-76
2021/07/03 10:39:32;;;;;;;;;;;;;;;26.58;55.43;99751.34;125670;1099;104262;-77
2021/07/03 10:42:01;;;;;;;;;;;;;;;26.56;56.03;99755.92;126333;1099;104217;-75
2021/07/03 10:44:38;;;;;;;;;;;;;;;26.53;56.00;99750.67;126403;1099;104236;-76
2021/07/03 10:47:09;;;;;;;;;;;;;;;26.57;55.44;99754.98;126379;1099;104211;-77
2021/07/03 10:49:39;;;;;;;;;;;;;;;26.64;55.72;99748.39;126348;1099;105142;-77
2021/07/03 10:52:13;;;;;;;;;;;;;;;26.69;55.70;99749.13;126357;1099;104271;-77
2021/07/03 10:54:43;;;;;;;;;;;;;;;26.74;55.43;99738.16;126364;1099;104150;-76
2021/07/03 10:57:12;;;;;;;;;;;;;;;26.79;54.23;99741.52;126332;1099;104178;-77
2021/07/03 10:59:43;;;;;;;;;;;;;;;26.79;55.44;99737.96;126291;1099;104217;-76
2021/07/03 11:02:14;;;;;;;;;;;;;;;26.76;54.40;99738.09;126374;1099;104185;-77
2021/07/03 11:04:46;;;;;;;;;;;;;;;26.69;55.13;99734.77;126380;1099;104236;-76
2021/07/03 11:07:16;;;;;;;;;;;;;;;26.72;55.11;99731.95;126338;1099;104238;-76
2021/07/03 11:09:46;;;;;;;;;;;;;;;26.81;54.69;99733.38;126304;1098;104159;-76
2021/07/03 11:12:17;;;;;;;;;;;;;;;26.81;54.25;99736.94;126361;1099;104188;-75
2021/07/03 11:14:50;;;;;;;;;;;;;;;26.80;53.98;99719.05;126366;1099;104149;-77
2021/07/03 11:17:24;;;;;;;;;;;;;;;26.80;53.72;99716.36;126361;1099;104149;-75
2021/07/03 11:19:54;;;;;;;;;;;;;;;26.82;54.09;99713.61;125223;1099;104226;-77
2021/07/03 11:22:24;;;;;;;;;;;;;;;26.89;54.00;99715.92;125273;1100;104303;-76
2021/07/03 11:24:54;;;;;;;;;;;;;;;26.96;54.15;99710.27;125360;1099;104351;-77
2021/07/03 11:27:28;;;;;;;;;;;;;;;27.07;53.42;99710.69;125365;1099;102534;-77
2021/07/03 11:29:58;;;;;;;;;;;;;;;27.11;53.45;99706.89;125249;1102;104300;-76
2021/07/03 11:32:28;;;;;;;;;;;;;;;27.15;53.53;99711.20;125346;1099;104252;-77
2021/07/03 11:34:58;;;;;;;;;;;;;;;27.22;52.83;99693.84;125321;1099;104178;-76
2021/07/03 11:37:28;;;;;;;;;;;;;;;27.25;52.00;99696.39;125260;1099;104226;-76
2021/07/03 11:39:58;;;;;;;;;;;;;;;27.19;51.88;99707.44;125238;1099;104156;-77
2021/07/03 11:42:29;;;;;;;;;;;;;;;27.17;52.38;99703.06;125314;1099;104278;-76
2021/07/03 11:44:59;;;;;;;;;;;;;;;27.28;52.40;99702.56;125284;1099;104162;-76
2021/07/03 11:47:39;;;;;;;;;;;;;;;27.32;52.17;99697.00;125345;1099;104361;-76
2021/07/03 11:50:09;;;;;;;;;;;;;;;27.49;52.21;99709.69;125261;1099;104392;-76
2021/07/03 11:52:43;;;;;;;;;;;;;;;27.65;52.45;99708.97;126305;1099;104207;-76
2021/07/03 11:55:13;;;;;;;;;;;;;;;27.86;52.38;99713.33;125482;1099;104408;-76
2021/07/03 11:57:43;;;;;;;;;;;;;;;28.07;51.62;99705.16;126368;1099;104143;-77
2021/07/03 12:00:14;;;;;;;;;;;;;;;28.14;51.33;99694.00;126317;1099;104140;-75
2021/07/03 12:02:44;;;;;;;;;;;;;;;28.17;50.97;99703.73;125448;1099;104184;-76
2021/07/03 12:05:14;;;;;;;;;;;;;;;27.98;51.09;99710.03;126400;1099;104271;-76
2021/07/03 12:07:44;;;;;;;;;;;;;;;27.73;50.73;99720.24;126352;1099;104239;-76
2021/07/03 12:10:15;;;;;;;;;;;;;;;27.48;50.27;99724.09;126266;1099;104277;-76
2021/07/03 12:12:52;;;;;;;;;;;;;;;27.25;51.06;99727.81;126316;1098;104265;-74
2021/07/03 12:15:25;;;;;;;;;;;;;;;26.97;51.06;99731.73;126347;1099;104137;-77
2021/07/03 12:17:58;;;;;;;;;;;;;;;26.83;51.22;99720.72;125425;1098;104229;-76
2021/07/03 12:20:29;;;;;;;;;;;;;;;26.82;51.61;99724.38;126348;1099;104169;-76
2021/07/03 12:23:00;;;;;;;;;;;;;;;26.82;51.21;99729.75;126358;1098;104566;-78
2021/07/03 12:25:31;;;;;;;;;;;;;;;26.79;51.35;99719.98;126355;1099;104153;-77
2021/07/03 12:28:05;;;;;;;;;;;;;;;26.80;51.62;99721.75;126351;1099;105389;-78
2021/07/03 12:30:35;;;;;;;;;;;;;;;26.88;50.72;99716.00;126289;1099;104242;-76
2021/07/03 12:33:09;;;;;;;;;;;;;;;26.80;51.04;99708.30;126343;1099;104150;-77
2021/07/03 12:35:40;;;;;;;;;;;;;;;26.76;50.98;99706.66;126307;1099;104143;-76
2021/07/03 12:38:11;;;;;;;;;;;;;;;26.64;51.13;99713.41;126374;1098;104188;-76
2021/07/03 12:40:42;;;;;;;;;;;;;;;26.55;51.05;99725.46;126317;1099;104239;-76
2021/07/03 12:43:14;;;;;;;;;;;;;;;26.47;51.58;99713.27;126390;1099;104232;-76
2021/07/03 12:45:44;;;;;;;;;;;;;;;26.45;51.44;99710.64;126340;1099;104175;-76